Time;durP1;ratioP1;P1;durP2;ratioP2;P2;SDS_P1;SDS_P2;PMS_P1;PMS_P2;Temp;Humidity;BMP_temperature;BMP_pressure;BME280_temperature;BME280_humidity;BME280_pressure;Samples;Min_cycle;Max_cycle;Signal;HPM_P1;HPM_P2
2021/07/12 00:01:02;;;;;;;;;;;;;;;24.12;60.60;100565.80;491826;106;922577;-73
2021/07/12 00:02:13;;;;;;;;;;;;;;;24.12;60.59;100563.02;485159;106;923565;-73
2021/07/12 00:03:17;;;;;;;;;;;;;;;24.11;60.62;100567.75;470892;111;922680;-71
2021/07/12 00:04:21;;;;;;;;;;;;;;;24.11;60.61;100567.75;470714;111;921697;-71
2021/07/12 00:05:25;;;;;;;;;;;;;;;24.11;60.66;100555.78;470158;111;925180;-71
2021/07/12 00:06:28;;;;;;;;;;;;;;;24.10;60.64;100559.69;470617;111;921357;-71
2021/07/12 00:07:32;;;;;;;;;;;;;;;24.09;60.64;100564.43;470586;113;923598;-69
2021/07/12 00:08:35;;;;;;;;;;;;;;;24.08;60.71;100560.02;469019;109;921748;-72
2021/07/12 00:09:38;;;;;;;;;;;;;;;24.07;60.75;100563.10;467423;110;922702;-71
2021/07/12 00:10:41;;;;;;;;;;;;;;;24.05;60.83;100568.14;468389;110;923131;-71
2021/07/12 00:11:45;;;;;;;;;;;;;;;24.02;60.94;100565.98;469578;112;923592;-71
2021/07/12 00:12:54;;;;;;;;;;;;;;;24.01;60.98;100564.31;469608;109;922662;-73
2021/07/12 00:13:58;;;;;;;;;;;;;;;24.00;60.99;100566.27;462251;112;922613;-70
2021/07/12 00:15:01;;;;;;;;;;;;;;;24.01;60.96;100564.31;462988;111;922702;-71
2021/07/12 00:16:04;;;;;;;;;;;;;;;24.01;60.90;100567.10;462434;114;922625;-71
2021/07/12 00:17:08;;;;;;;;;;;;;;;24.02;60.90;100569.59;462314;112;922691;-71
2021/07/12 00:18:11;;;;;;;;;;;;;;;24.02;60.78;100569.59;460231;112;923113;-70
2021/07/12 00:19:15;;;;;;;;;;;;;;;24.03;60.74;100562.06;462277;112;922735;-71
2021/07/12 00:20:18;;;;;;;;;;;;;;;24.01;60.62;100562.36;461306;112;922703;-72
2021/07/12 00:21:22;;;;;;;;;;;;;;;24.01;60.61;100561.53;461593;112;922568;-71
2021/07/12 00:22:26;;;;;;;;;;;;;;;24.00;60.62;100562.66;461940;112;922706;-69
2021/07/12 00:23:29;;;;;;;;;;;;;;;23.99;60.64;100561.83;462892;111;922674;-71
2021/07/12 00:24:32;;;;;;;;;;;;;;;23.99;60.70;100561.83;461671;112;922735;-70
2021/07/12 00:25:35;;;;;;;;;;;;;;;23.98;60.67;100568.52;462125;112;923141;-71
2021/07/12 00:26:39;;;;;;;;;;;;;;;23.95;60.75;100563.58;463015;111;922716;-70
2021/07/12 00:27:42;;;;;;;;;;;;;;;23.93;60.83;100563.04;462418;112;922669;-69
2021/07/12 00:28:45;;;;;;;;;;;;;;;23.93;60.88;100567.78;462704;112;922630;-69
2021/07/12 00:29:49;;;;;;;;;;;;;;;23.92;60.87;100566.98;462504;114;922741;-70
2021/07/12 00:30:52;;;;;;;;;;;;;;;23.93;60.89;100560.25;462958;112;923550;-71
2021/07/12 00:31:55;;;;;;;;;;;;;;;23.93;60.86;100559.42;461599;112;922678;-71
2021/07/12 00:32:59;;;;;;;;;;;;;;;23.92;60.81;100558.63;461167;112;922806;-71
2021/07/12 00:34:03;;;;;;;;;;;;;;;23.92;60.81;100555.84;461368;112;922744;-71
2021/07/12 00:35:07;;;;;;;;;;;;;;;23.91;60.82;100554.19;462090;112;922715;-69
2021/07/12 00:36:11;;;;;;;;;;;;;;;23.91;60.84;100561.70;462333;112;921472;-72
2021/07/12 00:37:15;;;;;;;;;;;;;;;23.90;60.83;100560.05;461180;112;921495;-71
2021/07/12 00:38:18;;;;;;;;;;;;;;;23.89;60.84;100563.95;461481;111;921693;-71
2021/07/12 00:39:21;;;;;;;;;;;;;;;23.89;60.86;100555.60;461987;111;921479;-72
2021/07/12 00:40:25;;;;;;;;;;;;;;;23.88;60.92;100560.34;462800;112;921494;-73
2021/07/12 00:41:29;;;;;;;;;;;;;;;23.88;60.96;100562.30;460869;111;921391;-71
2021/07/12 00:42:32;;;;;;;;;;;;;;;23.89;61.02;100561.17;462857;112;921555;-71
2021/07/12 00:43:36;;;;;;;;;;;;;;;23.86;61.08;100562.63;457755;112;921675;-71
2021/07/12 00:44:41;;;;;;;;;;;;;;;23.85;61.14;100563.75;462987;112;921511;-71
2021/07/12 00:45:44;;;;;;;;;;;;;;;23.85;61.17;100560.13;463838;111;921522;-69
2021/07/12 00:46:48;;;;;;;;;;;;;;;23.85;61.24;100554.56;462312;112;922123;-71
2021/07/12 00:47:52;;;;;;;;;;;;;;;23.84;61.23;100562.09;462489;111;921515;-70
2021/07/12 00:48:55;;;;;;;;;;;;;;;23.83;61.33;100557.64;464539;111;921503;-71
2021/07/12 00:49:59;;;;;;;;;;;;;;;23.82;61.43;100561.55;463051;111;922692;-71
2021/07/12 00:51:03;;;;;;;;;;;;;;;23.81;61.45;100561.88;463005;112;922711;-70
2021/07/12 00:52:06;;;;;;;;;;;;;;;23.79;61.49;100558.56;461590;114;923127;-71
2021/07/12 00:53:10;;;;;;;;;;;;;;;23.78;61.58;100557.73;461537;111;922693;-72
2021/07/12 00:54:13;;;;;;;;;;;;;;;23.77;61.66;100564.42;462726;112;921485;-72
2021/07/12 00:55:24;;;;;;;;;;;;;;;23.77;61.75;100558.85;461643;112;922264;-71
2021/07/12 00:56:29;;;;;;;;;;;;;;;23.78;61.81;100557.73;460976;114;923094;-71
2021/07/12 00:57:32;;;;;;;;;;;;;;;23.78;61.83;100554.11;461817;111;922739;-69
2021/07/12 00:58:36;;;;;;;;;;;;;;;23.79;61.83;100555.78;462368;111;923055;-71
2021/07/12 00:59:40;;;;;;;;;;;;;;;23.79;61.80;100562.17;456845;115;922691;-71
2021/07/12 01:00:44;;;;;;;;;;;;;;;23.81;61.77;100565.50;454958;115;923150;-71
2021/07/12 01:01:48;;;;;;;;;;;;;;;23.81;61.73;100565.50;461761;112;923151;-70
2021/07/12 01:02:51;;;;;;;;;;;;;;;23.82;61.70;100566.33;460256;112;921896;-70
2021/07/12 01:03:57;;;;;;;;;;;;;;;23.82;61.70;100567.13;460840;112;922703;-70
2021/07/12 01:05:01;;;;;;;;;;;;;;;23.83;61.72;100565.17;461193;112;921485;-70
2021/07/12 01:06:06;;;;;;;;;;;;;;;23.82;61.76;100575.48;463397;111;922528;-69
2021/07/12 01:07:11;;;;;;;;;;;;;;;23.80;61.79;100563.00;462110;111;922674;-70
2021/07/12 01:08:15;;;;;;;;;;;;;;;23.79;61.85;100567.74;461864;113;922668;-71
2021/07/12 01:09:20;;;;;;;;;;;;;;;23.78;61.93;100563.30;459634;114;921456;-71
2021/07/12 01:10:23;;;;;;;;;;;;;;;23.79;61.97;100569.70;454180;114;922550;-71
2021/07/12 01:11:34;;;;;;;;;;;;;;;23.77;62.01;100569.99;455335;114;922625;-71
2021/07/12 01:12:40;;;;;;;;;;;;;;;23.75;62.12;100572.27;454483;112;923240;-69
2021/07/12 01:13:54;;;;;;;;;;;;;;;23.74;62.17;100576.18;453929;114;922629;-71
2021/07/12 01:15:02;;;;;;;;;;;;;;;23.72;62.31;100572.86;453460;114;922754;-70
2021/07/12 01:16:21;;;;;;;;;;;;;;;23.71;62.38;100582.33;439517;119;922736;-72
2021/07/12 01:17:32;;;;;;;;;;;;;;;23.71;62.47;100581.53;452473;114;921856;-71
2021/07/12 01:18:41;;;;;;;;;;;;;;;23.71;62.51;100581.53;453025;115;921654;-69
2021/07/12 01:20:07;;;;;;;;;;;;;;;23.72;62.52;100583.99;453939;114;921488;-69
2021/07/12 01:21:16;;;;;;;;;;;;;;;23.74;62.52;100578.13;453921;114;922657;-69
2021/07/12 01:22:40;;;;;;;;;;;;;;;23.76;62.51;100573.09;451622;116;922671;-68
2021/07/12 01:24:01;;;;;;;;;;;;;;;23.78;62.51;100579.17;453396;112;921636;-70
2021/07/12 01:25:22;;;;;;;;;;;;;;;23.80;62.48;100571.36;454903;114;921496;-71
2021/07/12 01:26:40;;;;;;;;;;;;;;;23.81;62.46;100570.23;452146;116;923129;-69
2021/07/12 01:27:48;;;;;;;;;;;;;;;23.82;62.42;100569.91;455794;114;921568;-70
2021/07/12 01:29:12;;;;;;;;;;;;;;;23.82;62.46;100567.13;456264;114;921499;-71
2021/07/12 01:30:33;;;;;;;;;;;;;;;23.82;62.56;100572.69;450787;117;921584;-71
2021/07/12 01:31:44;;;;;;;;;;;;;;;23.82;62.68;100572.69;451771;114;921570;-70
2021/07/12 01:33:06;;;;;;;;;;;;;;;23.82;62.69;100569.91;454923;114;921552;-71
2021/07/12 01:34:11;;;;;;;;;;;;;;;23.83;62.69;100567.95;454095;114;921494;-70
2021/07/12 01:35:23;;;;;;;;;;;;;;;23.83;62.67;100567.95;454127;114;921489;-72
2021/07/12 01:36:43;;;;;;;;;;;;;;;23.84;62.66;100570.44;454548;114;921557;-72
2021/07/12 01:38:00;;;;;;;;;;;;;;;23.85;62.67;100574.06;453513;114;921680;-70
2021/07/12 01:39:08;;;;;;;;;;;;;;;23.85;62.67;100569.31;452350;112;921504;-71
2021/07/12 01:40:17;;;;;;;;;;;;;;;23.86;62.70;100567.36;453452;114;921518;-72
2021/07/12 01:41:22;;;;;;;;;;;;;;;23.85;62.75;100568.48;448456;116;921569;-71
2021/07/12 01:42:37;;;;;;;;;;;;;;;23.84;62.76;100570.44;448606;115;921529;-71
2021/07/12 01:43:45;;;;;;;;;;;;;;;23.84;62.79;100575.19;449822;115;921643;-71
2021/07/12 01:44:54;;;;;;;;;;;;;;;23.84;62.79;100566.83;455757;112;923085;-71
2021/07/12 01:46:01;;;;;;;;;;;;;;;23.83;62.78;100571.56;458287;114;923162;-72
2021/07/12 01:47:06;;;;;;;;;;;;;;;23.83;62.86;100568.78;454495;112;921443;-72
2021/07/12 01:48:11;;;;;;;;;;;;;;;23.83;62.84;100571.56;453146;114;921757;-72
2021/07/12 01:49:18;;;;;;;;;;;;;;;23.84;62.83;100564.05;454175;114;922715;-72
2021/07/12 01:50:25;;;;;;;;;;;;;;;23.83;62.85;100562.38;455173;114;923113;-71
2021/07/12 01:51:31;;;;;;;;;;;;;;;23.82;62.84;100563.54;453740;114;922652;-71
2021/07/12 01:52:53;;;;;;;;;;;;;;;23.80;62.90;100568.57;455556;112;921360;-71
2021/07/12 01:53:58;;;;;;;;;;;;;;;23.79;62.97;100566.91;453771;114;923099;-71
2021/07/12 01:55:16;;;;;;;;;;;;;;;23.78;63.07;100562.47;454755;112;921582;-71
2021/07/12 01:56:22;;;;;;;;;;;;;;;23.77;63.10;100564.42;453481;112;921537;-72
2021/07/12 01:57:30;;;;;;;;;;;;;;;23.77;63.16;100567.20;459019;112;922652;-72
2021/07/12 01:58:53;;;;;;;;;;;;;;;23.77;63.18;100564.42;461137;112;921674;-71
2021/07/12 01:59:58;;;;;;;;;;;;;;;23.77;63.20;100563.59;455040;115;923182;-69
2021/07/12 02:01:04;;;;;;;;;;;;;;;23.77;63.27;100558.02;452355;114;923056;-71
2021/07/12 02:02:07;;;;;;;;;;;;;;;23.76;63.29;100567.53;467316;112;921577;-71
2021/07/12 02:03:15;;;;;;;;;;;;;;;23.75;63.34;100571.44;460190;112;922713;-72
2021/07/12 02:04:19;;;;;;;;;;;;;;;23.74;63.38;100565.04;453876;114;922715;-71
2021/07/12 02:05:25;;;;;;;;;;;;;;;23.74;63.42;100572.56;445151;117;923040;-71
2021/07/12 02:06:30;;;;;;;;;;;;;;;23.73;63.49;100574.52;454504;114;922630;-71
2021/07/12 02:07:35;;;;;;;;;;;;;;;23.73;63.53;100568.13;458782;112;922632;-70
2021/07/12 02:08:40;;;;;;;;;;;;;;;23.74;63.47;100569.78;460707;112;922696;-70
2021/07/12 02:09:47;;;;;;;;;;;;;;;23.73;63.40;100570.91;456987;112;922683;-71
2021/07/12 02:10:51;;;;;;;;;;;;;;;23.73;63.37;100576.47;460193;114;922642;-71
2021/07/12 02:11:58;;;;;;;;;;;;;;;23.73;63.34;100571.73;456151;114;922642;-71
2021/07/12 02:13:05;;;;;;;;;;;;;;;23.72;63.37;100570.08;459467;114;923074;-69
2021/07/12 02:14:26;;;;;;;;;;;;;;;23.73;63.34;100579.25;455180;115;922786;-71
2021/07/12 02:15:31;;;;;;;;;;;;;;;23.72;63.36;100578.42;462193;112;922710;-69
2021/07/12 02:16:37;;;;;;;;;;;;;;;23.72;63.38;100575.64;463006;112;921446;-70
2021/07/12 02:17:42;;;;;;;;;;;;;;;23.72;63.38;100581.21;458369;113;921424;-71
2021/07/12 02:18:48;;;;;;;;;;;;;;;23.70;63.41;100580.70;458254;113;921996;-71
2021/07/12 02:19:57;;;;;;;;;;;;;;;23.71;63.44;100575.97;463336;112;921587;-70
2021/07/12 02:21:01;;;;;;;;;;;;;;;23.69;63.50;100577.09;463480;112;921444;-71
2021/07/12 02:22:05;;;;;;;;;;;;;;;23.67;63.54;100576.55;452588;114;921518;-72
2021/07/12 02:23:28;;;;;;;;;;;;;;;23.66;63.57;100577.67;453844;114;921459;-71
2021/07/12 02:24:32;;;;;;;;;;;;;;;23.66;63.64;100569.33;452619;114;921407;-71
2021/07/12 02:25:35;;;;;;;;;;;;;;;23.65;63.65;100581.59;452815;114;921895;-70
2021/07/12 02:26:41;;;;;;;;;;;;;;;23.65;63.67;100578.00;451527;115;921750;-70
2021/07/12 02:27:46;;;;;;;;;;;;;;;23.65;63.68;100584.37;452356;114;921603;-71
2021/07/12 02:28:51;;;;;;;;;;;;;;;23.65;63.68;100578.80;453154;114;921529;-71
2021/07/12 02:29:55;;;;;;;;;;;;;;;23.66;63.74;100585.20;451842;116;921753;-70
2021/07/12 02:30:59;;;;;;;;;;;;;;;23.67;63.78;100586.86;454178;114;921465;-71
2021/07/12 02:32:03;;;;;;;;;;;;;;;23.66;63.81;100587.98;459675;114;921570;-70
2021/07/12 02:33:09;;;;;;;;;;;;;;;23.65;63.83;100589.94;460191;114;921990;-71
2021/07/12 02:34:13;;;;;;;;;;;;;;;23.65;63.84;100589.14;455241;114;921517;-70
2021/07/12 02:35:18;;;;;;;;;;;;;;;23.63;63.87;100592.21;457966;114;921432;-71
2021/07/12 02:36:23;;;;;;;;;;;;;;;23.59;63.95;100591.17;457550;114;921616;-70
2021/07/12 02:37:28;;;;;;;;;;;;;;;23.58;64.07;100592.30;454231;114;922661;-71
2021/07/12 02:38:31;;;;;;;;;;;;;;;23.57;64.16;100593.41;454703;114;922720;-71
2021/07/12 02:39:35;;;;;;;;;;;;;;;23.58;64.22;100600.64;455575;114;922571;-71
2021/07/12 02:40:40;;;;;;;;;;;;;;;23.58;64.20;100602.59;452788;114;923089;-71
2021/07/12 02:41:46;;;;;;;;;;;;;;;23.58;64.16;100608.99;454740;116;922649;-71
2021/07/12 02:42:50;;;;;;;;;;;;;;;23.58;64.18;100600.64;453995;114;923145;-71
2021/07/12 02:43:54;;;;;;;;;;;;;;;23.60;64.11;100609.50;452924;114;923220;-70
2021/07/12 02:44:59;;;;;;;;;;;;;;;23.60;64.07;100609.50;452441;116;921596;-71
2021/07/12 02:46:03;;;;;;;;;;;;;;;23.60;64.06;100603.94;454317;114;921484;-70
2021/07/12 02:47:07;;;;;;;;;;;;;;;23.62;64.06;100606.42;452611;115;922663;-70
2021/07/12 02:48:11;;;;;;;;;;;;;;;23.61;64.01;100611.16;452125;114;922682;-69
2021/07/12 02:49:15;;;;;;;;;;;;;;;23.63;64.03;100608.09;453883;114;922661;-69
2021/07/12 02:50:20;;;;;;;;;;;;;;;23.63;64.04;100600.56;453086;115;921536;-69
2021/07/12 02:51:26;;;;;;;;;;;;;;;23.63;64.02;100603.34;453487;114;922639;-69
2021/07/12 02:52:33;;;;;;;;;;;;;;;23.66;63.99;100607.47;452725;114;922558;-69
2021/07/12 02:53:39;;;;;;;;;;;;;;;23.66;63.97;100611.09;451493;115;922775;-70
2021/07/12 02:54:45;;;;;;;;;;;;;;;23.67;63.98;100604.39;453710;114;922683;-70
2021/07/12 02:55:48;;;;;;;;;;;;;;;23.68;63.95;100600.48;453091;114;922629;-71
2021/07/12 02:56:52;;;;;;;;;;;;;;;23.69;63.93;100604.10;451863;114;923191;-70
2021/07/12 02:57:56;;;;;;;;;;;;;;;23.71;63.91;100601.02;453016;114;923508;-71
2021/07/12 02:59:00;;;;;;;;;;;;;;;23.72;63.91;100599.87;454113;114;921534;-72
2021/07/12 03:00:05;;;;;;;;;;;;;;;23.72;63.86;100599.87;454289;114;922702;-70
2021/07/12 03:01:09;;;;;;;;;;;;;;;23.74;63.85;100603.19;448766;118;921656;-71
2021/07/12 03:02:13;;;;;;;;;;;;;;;23.75;63.87;100602.06;447857;116;922658;-71
2021/07/12 03:03:16;;;;;;;;;;;;;;;23.75;63.85;100607.64;452345;115;922847;-71
2021/07/12 03:04:20;;;;;;;;;;;;;;;23.76;63.88;100598.98;455579;114;923176;-74
2021/07/12 03:05:23;;;;;;;;;;;;;;;23.78;63.86;100607.02;452583;116;922671;-70
2021/07/12 03:06:30;;;;;;;;;;;;;;;23.78;63.84;100599.49;455752;114;923052;-71
2021/07/12 03:07:34;;;;;;;;;;;;;;;23.79;63.79;100603.94;452724;114;922680;-71
2021/07/12 03:08:42;;;;;;;;;;;;;;;23.81;63.79;100600.86;446950;116;923048;-69
2021/07/12 03:09:47;;;;;;;;;;;;;;;23.81;63.84;100598.91;445750;116;922666;-71
2021/07/12 03:10:52;;;;;;;;;;;;;;;23.82;63.90;100599.73;444481;116;922683;-70
2021/07/12 03:12:14;;;;;;;;;;;;;;;23.82;63.92;100599.73;442442;117;923063;-72
2021/07/12 03:13:22;;;;;;;;;;;;;;;23.81;63.94;100598.08;443526;116;922790;-69
2021/07/12 03:14:40;;;;;;;;;;;;;;;23.83;64.00;100601.37;442794;116;921462;-71
2021/07/12 03:15:45;;;;;;;;;;;;;;;23.83;64.01;100599.41;444270;117;921548;-72
2021/07/12 03:16:50;;;;;;;;;;;;;;;23.84;63.98;100595.50;445177;117;921380;-70
2021/07/12 03:17:54;;;;;;;;;;;;;;;23.86;63.94;100598.83;444245;116;921423;-70
2021/07/12 03:19:00;;;;;;;;;;;;;;;23.86;63.94;100600.78;445158;117;921491;-72
2021/07/12 03:20:05;;;;;;;;;;;;;;;23.87;63.99;100603.23;448863;115;921359;-71
2021/07/12 03:21:08;;;;;;;;;;;;;;;23.88;64.00;100598.50;451212;115;921604;-71
2021/07/12 03:22:13;;;;;;;;;;;;;;;23.88;64.09;100601.28;441970;117;921960;-70
2021/07/12 03:23:19;;;;;;;;;;;;;;;23.90;64.17;100604.61;443126;117;921734;-71
2021/07/12 03:24:25;;;;;;;;;;;;;;;23.89;64.24;100605.73;447946;115;921785;-71
2021/07/12 03:25:30;;;;;;;;;;;;;;;23.87;64.30;100600.45;444983;116;921432;-71
2021/07/12 03:26:35;;;;;;;;;;;;;;;23.86;64.44;100598.83;446617;115;921502;-72
2021/07/12 03:27:39;;;;;;;;;;;;;;;23.85;64.53;100602.73;453982;114;921586;-70
2021/07/12 03:28:43;;;;;;;;;;;;;;;23.85;64.59;100594.38;456173;114;921763;-71
2021/07/12 03:29:48;;;;;;;;;;;;;;;23.85;64.55;100599.95;455296;114;921606;-71
2021/07/12 03:30:53;;;;;;;;;;;;;;;23.87;64.56;100603.23;454522;114;921358;-70
2021/07/12 03:31:58;;;;;;;;;;;;;;;23.89;64.59;100594.59;453946;113;921338;-71
2021/07/12 03:33:03;;;;;;;;;;;;;;;23.90;64.56;100601.82;454517;114;923222;-71
2021/07/12 03:34:09;;;;;;;;;;;;;;;23.91;64.56;100597.91;453961;114;921532;-71
2021/07/12 03:35:14;;;;;;;;;;;;;;;23.92;64.60;100599.58;456445;114;921575;-71
2021/07/12 03:36:19;;;;;;;;;;;;;;;23.91;64.67;100593.17;453150;113;922661;-69
2021/07/12 03:37:23;;;;;;;;;;;;;;;23.93;64.70;100603.98;453900;114;922590;-69
2021/07/12 03:38:26;;;;;;;;;;;;;;;23.94;64.66;100603.69;456321;114;922625;-71
2021/07/12 03:39:30;;;;;;;;;;;;;;;23.95;64.57;100602.56;451468;116;922797;-71
2021/07/12 03:40:34;;;;;;;;;;;;;;;23.97;64.47;100605.06;451348;113;922588;-70
2021/07/12 03:41:38;;;;;;;;;;;;;;;23.98;64.39;100601.95;455712;114;922701;-71
2021/07/12 03:42:42;;;;;;;;;;;;;;;24.01;64.25;100603.31;456080;114;922721;-70
2021/07/12 03:43:46;;;;;;;;;;;;;;;24.01;64.16;100595.78;454315;114;922686;-70
2021/07/12 03:44:51;;;;;;;;;;;;;;;24.04;64.16;100602.69;454240;113;922687;-71
2021/07/12 03:45:56;;;;;;;;;;;;;;;24.05;64.10;100599.61;454406;114;922653;-69
2021/07/12 03:47:01;;;;;;;;;;;;;;;24.07;64.00;100599.31;454577;114;923653;-71
2021/07/12 03:48:06;;;;;;;;;;;;;;;24.10;63.98;100601.48;453470;114;922638;-71
2021/07/12 03:49:12;;;;;;;;;;;;;;;24.11;63.99;100606.75;456619;113;921438;-71
2021/07/12 03:50:17;;;;;;;;;;;;;;;24.13;63.96;100598.10;454324;114;922642;-69
2021/07/12 03:51:28;;;;;;;;;;;;;;;24.15;63.89;100601.39;455439;114;922710;-70
2021/07/12 03:52:35;;;;;;;;;;;;;;;24.17;63.81;100601.92;453981;114;921465;-70
2021/07/12 03:53:39;;;;;;;;;;;;;;;24.20;63.76;100604.15;454837;113;921521;-71
2021/07/12 03:54:42;;;;;;;;;;;;;;;24.22;63.68;100601.04;460486;112;923936;-71
2021/07/12 03:55:47;;;;;;;;;;;;;;;24.23;63.65;100595.17;460760;112;922709;-70
2021/07/12 03:56:50;;;;;;;;;;;;;;;24.25;63.60;100595.70;454805;114;922719;-70
2021/07/12 03:57:54;;;;;;;;;;;;;;;24.27;63.55;100598.16;454219;113;922710;-72
2021/07/12 03:58:57;;;;;;;;;;;;;;;24.29;63.56;100604.27;457849;113;922513;-73
2021/07/12 04:00:01;;;;;;;;;;;;;;;24.31;63.55;100599.22;457326;114;922735;-70
2021/07/12 04:01:07;;;;;;;;;;;;;;;24.33;63.45;100608.09;453991;114;921412;-71
2021/07/12 04:02:11;;;;;;;;;;;;;;;24.35;63.30;100603.05;454660;113;921528;-72
2021/07/12 04:03:14;;;;;;;;;;;;;;;24.37;63.18;100607.16;457289;114;923979;-70
2021/07/12 04:04:17;;;;;;;;;;;;;;;24.38;63.08;100602.42;454877;114;922684;-70
2021/07/12 04:05:24;;;;;;;;;;;;;;;24.39;62.99;100609.66;454654;114;924470;-71
2021/07/12 04:06:28;;;;;;;;;;;;;;;24.39;62.95;100609.66;456313;113;922993;-73
2021/07/12 04:07:31;;;;;;;;;;;;;;;24.40;63.00;100606.57;456247;114;922767;-72
2021/07/12 04:08:35;;;;;;;;;;;;;;;24.40;63.04;100609.36;453712;114;921559;-72
2021/07/12 04:09:38;;;;;;;;;;;;;;;24.42;62.97;100609.06;453289;114;921474;-70
2021/07/12 04:10:41;;;;;;;;;;;;;;;24.43;62.91;100611.52;459997;112;921365;-71
2021/07/12 04:11:49;;;;;;;;;;;;;;;24.44;62.81;100610.39;462599;111;921429;-71
2021/07/12 04:12:50;;;;;;;;;;;;;;;24.45;62.82;100614.84;463510;112;921551;-72
2021/07/12 04:13:53;;;;;;;;;;;;;;;24.47;62.84;100611.75;462918;111;921468;-72
2021/07/12 04:14:58;;;;;;;;;;;;;;;24.48;62.88;100614.21;463560;111;921424;-72
2021/07/12 04:16:01;;;;;;;;;;;;;;;24.50;62.89;100616.70;463091;111;921436;-73
2021/07/12 04:17:05;;;;;;;;;;;;;;;24.51;62.90;100616.41;464225;111;921501;-72
2021/07/12 04:18:08;;;;;;;;;;;;;;;24.53;62.94;100616.11;462885;113;921430;-70
2021/07/12 04:19:11;;;;;;;;;;;;;;;24.54;62.95;100617.73;463976;113;921510;-71
2021/07/12 04:20:15;;;;;;;;;;;;;;;24.56;62.98;100614.65;454962;113;921594;-73
2021/07/12 04:21:19;;;;;;;;;;;;;;;24.57;63.01;100616.30;457344;113;921544;-71
2021/07/12 04:22:22;;;;;;;;;;;;;;;24.59;63.00;100622.41;462433;111;921440;-72
2021/07/12 04:23:26;;;;;;;;;;;;;;;24.59;62.99;100614.85;462837;113;921650;-72
2021/07/12 04:24:29;;;;;;;;;;;;;;;24.62;62.92;100616.20;454425;112;922736;-72
2021/07/12 04:25:32;;;;;;;;;;;;;;;24.62;62.95;100622.61;455502;113;922653;-71
2021/07/12 04:26:35;;;;;;;;;;;;;;;24.63;63.01;100624.28;463590;111;921518;-71
2021/07/12 04:27:39;;;;;;;;;;;;;;;24.65;63.05;100619.20;462670;113;923113;-70
2021/07/12 04:28:42;;;;;;;;;;;;;;;24.65;63.05;100621.98;462778;111;922669;-71
2021/07/12 04:29:45;;;;;;;;;;;;;;;24.68;62.97;100626.14;463419;111;923065;-72
2021/07/12 04:30:48;;;;;;;;;;;;;;;24.68;62.89;100621.39;462397;113;921461;-70
2021/07/12 04:31:52;;;;;;;;;;;;;;;24.70;62.83;100621.89;462968;113;922722;-72
2021/07/12 04:32:55;;;;;;;;;;;;;;;24.71;62.79;100619.93;463238;111;922594;-71
2021/07/12 04:33:58;;;;;;;;;;;;;;;24.72;62.82;100619.63;463847;112;923155;-71
2021/07/12 04:35:02;;;;;;;;;;;;;;;24.73;62.85;100624.08;462989;113;922657;-70
2021/07/12 04:36:05;;;;;;;;;;;;;;;24.73;62.93;100618.50;463160;113;923168;-72
2021/07/12 04:37:09;;;;;;;;;;;;;;;24.75;62.95;100618.20;464439;111;922653;-70
2021/07/12 04:38:12;;;;;;;;;;;;;;;24.75;62.98;100618.20;462215;111;921640;-71
2021/07/12 04:39:15;;;;;;;;;;;;;;;24.76;63.00;100617.05;464061;111;923173;-71
2021/07/12 04:40:19;;;;;;;;;;;;;;;24.78;62.94;100618.41;462083;113;922678;-71
2021/07/12 04:41:22;;;;;;;;;;;;;;;24.82;62.91;100610.23;462419;111;923117;-72
2021/07/12 04:42:26;;;;;;;;;;;;;;;24.85;62.77;100615.21;464294;111;922659;-70
2021/07/12 04:43:29;;;;;;;;;;;;;;;24.88;62.76;100617.40;462663;113;922398;-72
2021/07/12 04:44:33;;;;;;;;;;;;;;;24.90;62.76;100613.18;464010;111;922655;-72
2021/07/12 04:45:36;;;;;;;;;;;;;;;24.94;62.80;100607.80;463797;111;923112;-72
2021/07/12 04:46:39;;;;;;;;;;;;;;;24.96;62.83;100613.91;464289;112;921598;-71
2021/07/12 04:47:43;;;;;;;;;;;;;;;24.99;62.75;100607.69;462907;111;922327;-70
2021/07/12 04:48:46;;;;;;;;;;;;;;;25.01;62.68;100611.01;463347;111;922665;-71
2021/07/12 04:49:50;;;;;;;;;;;;;;;25.05;62.59;100602.83;462838;111;922656;-72
2021/07/12 04:50:53;;;;;;;;;;;;;;;25.07;62.62;100604.19;462175;111;922673;-70
2021/07/12 04:51:57;;;;;;;;;;;;;;;25.11;62.43;100605.22;463850;111;922635;-71
2021/07/12 04:53:00;;;;;;;;;;;;;;;25.15;62.29;100595.08;462802;113;923709;-71
2021/07/12 04:54:03;;;;;;;;;;;;;;;25.20;62.12;100603.34;463641;111;922669;-70
2021/07/12 04:55:07;;;;;;;;;;;;;;;25.25;61.90;100605.22;463778;111;923145;-70
2021/07/12 04:56:11;;;;;;;;;;;;;;;25.28;61.89;100602.62;463422;111;923163;-71
2021/07/12 04:57:14;;;;;;;;;;;;;;;25.33;61.72;100605.30;463467;111;922669;-73
2021/07/12 04:58:17;;;;;;;;;;;;;;;25.40;61.55;100609.63;464383;111;921665;-70
2021/07/12 04:59:28;;;;;;;;;;;;;;;25.44;61.32;100602.27;463849;111;921594;-73
2021/07/12 05:00:33;;;;;;;;;;;;;;;25.50;61.25;100601.85;462963;111;921536;-72
2021/07/12 05:01:37;;;;;;;;;;;;;;;25.56;60.97;100597.84;463072;113;921546;-71
2021/07/12 05:02:40;;;;;;;;;;;;;;;25.62;60.81;100592.96;461991;111;922662;-71
2021/07/12 05:03:44;;;;;;;;;;;;;;;25.69;60.69;100599.75;462638;111;922052;-71
2021/07/12 05:04:47;;;;;;;;;;;;;;;25.73;60.32;100599.96;465895;111;921613;-73
2021/07/12 05:05:50;;;;;;;;;;;;;;;25.78;60.10;100599.84;463560;111;921439;-71
2021/07/12 05:06:53;;;;;;;;;;;;;;;25.83;60.07;100604.47;462978;112;921525;-71
2021/07/12 05:07:57;;;;;;;;;;;;;;;25.87;60.09;100600.73;464362;111;921508;-70
2021/07/12 05:09:00;;;;;;;;;;;;;;;25.91;60.08;100601.77;463492;111;921511;-72
2021/07/12 05:10:04;;;;;;;;;;;;;;;25.96;59.98;100604.44;463097;113;921382;-72
2021/07/12 05:11:08;;;;;;;;;;;;;;;25.98;59.91;100602.13;462568;113;921524;-72
2021/07/12 05:12:14;;;;;;;;;;;;;;;26.01;60.06;100601.52;463282;111;921494;-71
2021/07/12 05:13:18;;;;;;;;;;;;;;;26.03;59.96;100606.77;461674;112;921758;-72
2021/07/12 05:14:24;;;;;;;;;;;;;;;26.04;60.02;100609.25;461728;112;921520;-70
2021/07/12 05:15:27;;;;;;;;;;;;;;;26.05;60.21;100608.11;462554;112;921682;-71
2021/07/12 05:16:32;;;;;;;;;;;;;;;26.07;60.23;100599.42;463650;111;921566;-71
2021/07/12 05:17:36;;;;;;;;;;;;;;;26.10;60.28;100607.16;461470;111;923068;-71
2021/07/12 05:18:40;;;;;;;;;;;;;;;26.12;60.03;100607.67;462511;112;921731;-70
2021/07/12 05:19:43;;;;;;;;;;;;;;;26.13;60.21;100603.74;462853;114;921621;-73
2021/07/12 05:20:47;;;;;;;;;;;;;;;26.16;60.31;100608.68;462665;111;921657;-72
2021/07/12 05:21:50;;;;;;;;;;;;;;;26.20;59.97;100609.69;462211;112;921576;-73
2021/07/12 05:22:53;;;;;;;;;;;;;;;26.22;59.44;100604.61;462539;114;922709;-73
2021/07/12 05:23:56;;;;;;;;;;;;;;;26.26;59.31;100616.01;462725;114;922662;-70
2021/07/12 05:25:00;;;;;;;;;;;;;;;26.28;59.01;100606.17;462508;111;921379;-72
2021/07/12 05:26:05;;;;;;;;;;;;;;;26.32;58.44;100609.14;462694;112;922671;-73
2021/07/12 05:27:08;;;;;;;;;;;;;;;26.35;57.99;100614.94;462610;112;924005;-72
2021/07/12 05:28:11;;;;;;;;;;;;;;;26.39;57.57;100606.73;463758;112;922693;-72
2021/07/12 05:29:14;;;;;;;;;;;;;;;26.41;57.12;100608.05;463096;112;923494;-71
2021/07/12 05:30:18;;;;;;;;;;;;;;;26.44;56.93;100615.81;464140;111;922012;-71
2021/07/12 05:31:21;;;;;;;;;;;;;;;26.47;56.59;100605.94;462974;112;921788;-72
2021/07/12 05:32:25;;;;;;;;;;;;;;;26.48;55.90;100611.22;461948;114;922555;-72
2021/07/12 05:33:28;;;;;;;;;;;;;;;26.50;55.60;100605.31;453212;114;923141;-72